Time;durP1;ratioP1;P1;durP2;ratioP2;P2;SDS_P1;SDS_P2;PMS_P1;PMS_P2;Temp;Humidity;BMP_temperature;BMP_pressure;BME280_temperature;BME280_humidity;BME280_pressure;Samples;Min_cycle;Max_cycle;Signal;HPM_P1;HPM_P2
2021/12/12 00:02:33;;;;;;;1.30;0.77;;;;;;;-145.06;0.00;60892.56;4728175;29;20033;-87
2021/12/12 00:05:17;;;;;;;1.42;0.80;;;;;;;5.48;0.00;60892.56;4730719;29;20475;-86
2021/12/12 00:07:57;;;;;;;1.17;0.80;;;;;;;6.79;0.00;60892.56;4712627;29;20040;-87
2021/12/12 00:10:41;;;;;;;0.60;0.60;;;;;;;-145.06;0.00;60892.56;4722086;29;20025;-87
2021/12/12 00:13:41;;;;;;;1.13;0.80;;;;;;;8.08;0.00;60892.56;4727001;29;20040;-86
2021/12/12 00:16:20;;;;;;;0.93;0.70;;;;;;;6.79;0.00;60892.56;4733078;29;20040;-87
2021/12/12 00:18:59;;;;;;;1.10;0.70;;;;;;;-145.06;0.00;60892.56;4734593;29;20036;-87
2021/12/12 00:21:41;;;;;;;;;;;;;;;-145.06;0.00;60892.56;4715579;29;20041;-87
2021/12/12 00:24:23;;;;;;;1.10;0.80;;;;;;;-145.06;0.00;60892.56;4716353;29;19915;-87
2021/12/12 00:27:03;;;;;;;1.60;0.80;;;;;;;8.08;0.00;60892.56;4715561;29;20064;-87
2021/12/12 00:29:42;;;;;;;1.23;0.73;;;;;;;5.48;0.00;60892.56;4722861;29;20032;-87
2021/12/12 00:32:26;;;;;;;;;;;;;;;5.47;0.00;60892.56;4721213;29;20041;-87
2021/12/12 00:35:09;;;;;;;1.15;0.70;;;;;;;10.68;0.00;60892.56;4730056;29;19915;-87
2021/12/12 00:37:54;;;;;;;1.67;0.88;;;;;;;-145.06;0.00;60892.56;4728342;29;20040;-86
2021/12/12 00:40:38;;;;;;;0.98;0.60;;;;;;;-145.06;0.00;60892.56;4716624;29;20823;-85
2021/12/12 00:43:31;;;;;;;1.77;0.80;;;;;;;-145.06;0.00;60892.56;4721403;29;20032;-87
2021/12/12 00:46:12;;;;;;;1.92;0.93;;;;;;;-145.06;0.00;60892.56;4728756;29;20116;-87
2021/12/12 00:48:52;;;;;;;1.23;0.80;;;;;;;-145.06;0.00;60892.56;4720783;29;20032;-87
2021/12/12 00:51:34;;;;;;;1.55;0.80;;;;;;;-145.06;0.00;60892.56;4714183;29;20040;-86
2021/12/12 00:54:16;;;;;;;1.23;0.80;;;;;;;-145.06;0.00;60892.56;4711450;29;20380;-87
2021/12/12 00:56:55;;;;;;;1.15;0.70;;;;;;;8.08;0.00;60892.56;4718015;29;20040;-87
2021/12/12 00:59:35;;;;;;;0.73;0.60;;;;;;;-145.06;0.00;60892.56;4712396;29;20491;-86
2021/12/12 01:02:23;;;;;;;1.42;0.70;;;;;;;-145.06;0.00;60892.56;4726669;29;20040;-87
2021/12/12 01:05:06;;;;;;;1.70;0.73;;;;;;;-145.06;0.00;60892.56;4727567;29;20044;-87
2021/12/12 01:07:47;;;;;;;0.88;0.68;;;;;;;-145.06;0.00;60892.56;4712635;29;20040;-87
2021/12/12 01:10:35;;;;;;;1.55;1.02;;;;;;;-145.06;0.00;60892.56;4711948;29;20371;-87
2021/12/12 01:13:16;;;;;;;0.90;0.73;;;;;;;-145.06;0.00;60892.56;4719135;29;20028;-87
2021/12/12 01:16:06;;;;;;;1.50;0.82;;;;;;;-145.06;0.00;60892.56;4733234;29;20119;-87
2021/12/12 01:18:51;;;;;;;1.88;0.90;;;;;;;-145.06;0.00;60892.56;4712325;29;20044;-87
2021/12/12 01:21:36;;;;;;;1.25;0.98;;;;;;;-145.06;0.00;60892.56;4713212;29;20040;-87
2021/12/12 01:24:24;;;;;;;1.20;0.88;;;;;;;-145.06;0.00;60892.56;4721026;29;20368;-87
2021/12/12 01:27:06;;;;;;;1.73;0.90;;;;;;;-145.06;0.00;60892.56;4748455;29;20039;-87
2021/12/12 01:29:45;;;;;;;1.38;0.88;;;;;;;-145.06;0.00;60892.56;4731130;29;20115;-87
2021/12/12 01:32:29;;;;;;;1.60;1.10;;;;;;;-145.06;0.00;60892.56;4728673;29;20032;-87
2021/12/12 01:35:15;;;;;;;1.75;1.00;;;;;;;-145.06;0.00;60892.56;4712061;29;20045;-87
2021/12/12 01:40:58;;;;;;;2.15;0.77;;;;;;;-145.06;0.00;60892.56;4729635;29;20029;-87
2021/12/12 01:43:42;;;;;;;2.38;1.05;;;;;;;-145.06;0.00;60892.56;4725803;29;20371;-86
2021/12/12 01:46:26;;;;;;;1.15;0.80;;;;;;;-145.06;0.00;60892.56;4722508;29;20035;-87
2021/12/12 01:49:21;;;;;;;1.13;0.80;;;;;;;-145.06;0.00;60892.56;4731860;29;20036;-88
2021/12/12 01:52:01;;;;;;;2.25;1.10;;;;;;;-145.06;0.00;60892.56;4714742;29;20040;-87
2021/12/12 01:54:44;;;;;;;0.82;0.68;;;;;;;-145.06;0.00;60892.56;4726162;29;20407;-88
2021/12/12 01:57:28;;;;;;;1.25;0.80;;;;;;;-145.06;0.00;60892.56;4731311;29;20127;-87
2021/12/12 02:00:25;;;;;;;2.97;1.27;;;;;;;8.08;0.00;60892.56;4739987;29;20016;-88
2021/12/12 02:03:07;;;;;;;2.38;1.00;;;;;;;-145.06;0.00;60892.56;4748391;29;20072;-87
2021/12/12 02:05:47;;;;;;;1.95;0.93;;;;;;;-145.06;0.00;60892.56;4720903;29;20051;-87
2021/12/12 02:08:30;;;;;;;1.58;0.88;;;;;;;-145.06;0.00;60892.56;4721586;29;20032;-87
2021/12/12 02:11:15;;;;;;;1.75;0.90;;;;;;;-145.06;0.00;60892.56;4727958;29;20036;-87
2021/12/12 02:14:08;;;;;;;2.13;1.00;;;;;;;-145.06;0.00;60892.56;4719798;29;20028;-88
2021/12/12 02:17:05;;;;;;;2.25;1.05;;;;;;;6.79;0.00;60892.56;4726501;29;20036;-87
2021/12/12 02:20:04;;;;;;;2.75;0.82;;;;;;;-145.06;0.00;60892.56;4722028;29;20044;-87
2021/12/12 02:37:30;;;;;;;3.10;1.08;;;;;;;-145.06;0.00;60892.56;4728395;29;20116;-87
2021/12/12 02:40:29;;;;;;;2.15;1.02;;;;;;;-145.06;0.00;60892.56;4722934;29;20039;-87
2021/12/12 02:43:09;;;;;;;5.15;1.20;;;;;;;-145.06;0.00;60892.56;4703399;29;20115;-88
2021/12/12 02:45:53;;;;;;;1.50;0.98;;;;;;;6.64;0.00;60892.56;4726637;29;20044;-87
2021/12/12 02:48:39;;;;;;;2.20;1.13;;;;;;;6.61;0.00;60892.56;4728854;29;20028;-87
2021/12/12 02:51:19;;;;;;;1.23;0.95;;;;;;;6.66;0.00;60892.56;4713140;29;20064;-87
2021/12/12 02:53:59;;;;;;;2.38;0.98;;;;;;;-145.06;0.00;60892.56;4728128;29;20372;-87
2021/12/12 02:56:40;;;;;;;;;;;;;;;6.64;0.00;60892.56;4719727;29;20044;-87
2021/12/12 02:59:22;;;;;;;1.38;0.80;;;;;;;6.65;0.00;60892.56;4729635;29;19915;-86
2021/12/12 03:02:16;;;;;;;1.33;0.73;;;;;;;6.65;0.00;60892.56;4714656;29;20044;-87
2021/12/12 03:04:58;;;;;;;1.00;0.90;;;;;;;-145.06;0.00;60892.56;4718795;29;20111;-87
2021/12/12 03:07:37;;;;;;;1.40;0.90;;;;;;;6.70;0.00;60892.56;4718549;29;20036;-87
2021/12/12 03:10:23;;;;;;;1.55;0.73;;;;;;;21.08;0.00;60892.56;4737104;29;20039;-88
2021/12/12 03:13:05;;;;;;;0.68;0.60;;;;;;;6.73;0.00;60892.56;4736452;29;20127;-87
2021/12/12 03:15:45;;;;;;;1.52;0.90;;;;;;;6.79;0.00;60892.56;4731974;29;20035;-87
2021/12/12 03:18:29;;;;;;;3.42;0.90;;;;;;;6.78;0.00;60892.56;4737101;29;20044;-87
2021/12/12 03:21:17;;;;;;;1.75;0.70;;;;;;;-145.06;0.00;60892.56;4720508;29;20032;-87
2021/12/12 03:24:03;;;;;;;1.15;0.80;;;;;;;7.44;0.00;60892.56;4733879;29;20037;-87
2021/12/12 03:26:44;;;;;;;1.73;1.02;;;;;;;-145.06;0.00;60892.56;4727253;29;20480;-87
2021/12/12 03:29:25;;;;;;;1.67;0.80;;;;;;;8.08;0.00;60892.56;4710594;29;20028;-87
2021/12/12 03:32:09;;;;;;;1.10;0.60;;;;;;;-145.06;0.00;60892.56;4715490;29;20622;-87
2021/12/12 03:34:53;;;;;;;1.10;0.80;;;;;;;6.88;0.00;60892.56;4724851;29;20021;-87
2021/12/12 03:37:33;;;;;;;1.33;0.90;;;;;;;8.08;0.00;60892.56;4722227;29;20040;-86
2021/12/12 03:40:26;;;;;;;1.10;0.80;;;;;;;6.91;0.00;60892.56;4724431;29;20037;-86
2021/12/12 03:43:07;;;;;;;2.97;0.90;;;;;;;-145.06;0.00;60892.56;4722533;29;20479;-86
2021/12/12 03:45:52;;;;;;;1.35;0.70;;;;;;;-145.06;0.00;60892.56;4730730;29;20032;-86
2021/12/12 03:48:32;;;;;;;1.67;0.80;;;;;;;-145.06;0.00;60892.56;4734037;29;20032;-86
2021/12/12 03:51:16;;;;;;;1.90;1.02;;;;;;;-145.06;0.00;60892.56;4734774;29;20475;-85
2021/12/12 03:53:56;;;;;;;0.90;0.68;;;;;;;-145.06;0.00;60892.56;4726382;29;20033;-86
2021/12/12 03:56:35;;;;;;;1.80;0.98;;;;;;;8.08;0.00;60892.56;4714252;29;20482;-87
2021/12/12 03:59:15;;;;;;;3.25;0.90;;;;;;;7.44;0.00;60892.56;4725620;29;20040;-87
2021/12/12 04:01:55;;;;;;;1.50;0.90;;;;;;;-145.06;0.00;60892.56;4731695;29;20040;-86
2021/12/12 04:04:37;;;;;;;;;;;;;;;-145.06;0.00;60892.56;4733366;29;20032;-86
2021/12/12 04:07:23;;;;;;;0.82;0.60;;;;;;;-145.06;0.00;60892.56;4737099;29;19914;-86
2021/12/12 04:10:05;;;;;;;1.42;0.88;;;;;;;-145.06;0.00;60892.56;4730572;29;20036;-86
2021/12/12 04:12:44;;;;;;;1.73;0.90;;;;;;;7.11;0.00;60892.56;4726924;29;20063;-87
2021/12/12 04:15:24;;;;;;;1.63;0.95;;;;;;;-145.06;0.00;60892.56;4726054;29;20036;-86
2021/12/12 04:18:04;;;;;;;1.30;0.80;;;;;;;-145.06;0.00;60892.56;4739852;29;20039;-87
2021/12/12 04:20:43;;;;;;;1.52;0.70;;;;;;;7.01;0.00;60892.56;4721750;29;20033;-86
2021/12/12 04:23:27;;;;;;;1.70;0.80;;;;;;;-145.06;0.00;60892.56;4722443;29;20111;-86
2021/12/12 04:26:08;;;;;;;1.70;0.80;;;;;;;-145.06;0.00;60892.56;4720591;29;20044;-87
2021/12/12 04:29:16;;;;;;;2.45;0.88;;;;;;;-145.06;0.00;60892.56;4718244;29;20051;-87
2021/12/12 04:31:58;;;;;;;1.23;0.60;;;;;;;-145.06;0.00;60892.56;4736443;29;20044;-86
2021/12/12 04:34:41;;;;;;;1.30;0.85;;;;;;;7.11;0.00;60892.56;4714432;29;20372;-86
2021/12/12 04:37:21;;;;;;;1.80;0.80;;;;;;;-145.06;0.00;60892.56;4734116;29;20063;-87
2021/12/12 04:40:00;;;;;;;2.25;1.02;;;;;;;-145.06;0.00;60892.56;4732714;29;20032;-86
2021/12/12 04:42:40;;;;;;;1.45;0.88;;;;;;;-145.06;0.00;60892.56;4730312;29;20060;-86
2021/12/12 04:46:03;;;;;;;2.05;0.90;;;;;;;-145.06;0.00;60892.56;4734514;29;20467;-86
2021/12/12 04:52:00;;;;;;;2.15;1.10;;;;;;;-145.06;0.00;60892.56;4737910;29;20122;-86
2021/12/12 04:54:45;;;;;;;1.40;0.65;;;;;;;8.08;0.00;60892.56;4710559;29;20032;-86
2021/12/12 04:57:39;;;;;;;0.98;0.88;;;;;;;7.03;0.00;60892.56;4726474;29;20036;-86
2021/12/12 05:00:25;;;;;;;1.23;0.70;;;;;;;8.08;0.00;60892.56;4714077;29;20037;-86
2021/12/12 05:03:19;;;;;;;1.45;0.90;;;;;;;10.68;0.00;60892.56;4711928;29;20060;-86
2021/12/12 05:06:13;;;;;;;1.13;0.88;;;;;;;-145.06;0.00;60892.56;4729995;29;20044;-85
2021/12/12 05:09:02;;;;;;;2.22;0.90;;;;;;;-145.06;0.00;60892.56;4722399;29;20368;-86
2021/12/12 05:11:50;;;;;;;1.58;0.82;;;;;;;-145.06;0.00;60892.56;4722487;29;20068;-86
2021/12/12 05:14:39;;;;;;;1.33;0.90;;;;;;;-145.06;0.00;60892.56;4738375;29;20028;-86
2021/12/12 05:17:26;;;;;;;1.20;0.82;;;;;;;10.68;0.00;60892.56;4734024;29;20052;-87
2021/12/12 05:20:21;;;;;;;1.70;0.85;;;;;;;-145.06;0.00;60892.56;4742982;29;20142;-87
2021/12/12 05:23:11;;;;;;;1.65;0.90;;;;;;;-145.06;0.00;60892.56;4741284;29;20028;-86
2021/12/12 05:25:56;;;;;;;2.50;0.98;;;;;;;-145.06;0.00;60892.56;4727177;29;20070;-87
2021/12/12 05:29:17;;;;;;;1.35;0.85;;;;;;;-145.06;0.00;60892.56;4710165;29;20379;-86
2021/12/12 05:32:00;;;;;;;1.27;0.73;;;;;;;-145.06;0.00;60892.56;4720373;29;20076;-86
2021/12/12 05:34:41;;;;;;;0.60;0.60;;;;;;;-145.06;0.00;60892.56;4730091;29;20364;-86
2021/12/12 05:37:21;;;;;;;0.80;0.60;;;;;;;-145.06;0.00;60892.56;4729205;29;20048;-86
2021/12/12 05:40:05;;;;;;;1.00;0.77;;;;;;;-145.06;0.00;60892.56;4723894;29;20037;-86
2021/12/12 05:42:44;;;;;;;1.38;0.82;;;;;;;-145.06;0.00;60892.56;4734607;29;20040;-86
2021/12/12 05:45:23;;;;;;;1.45;0.85;;;;;;;-145.06;0.00;60892.56;4716414;29;20040;-87
2021/12/12 05:48:05;;;;;;;0.50;0.50;;;;;;;-145.06;0.00;60892.56;4722628;29;20742;-85
2021/12/12 05:50:45;;;;;;;0.57;0.57;;;;;;;-145.06;0.00;60892.56;4721520;29;20044;-86
2021/12/12 05:53:31;;;;;;;0.60;0.60;;;;;;;-145.06;0.00;60892.56;4725874;29;20032;-86
2021/12/12 05:56:11;;;;;;;0.55;0.50;;;;;;;-145.06;0.00;60892.56;4709979;29;20041;-87
2021/12/12 05:58:50;;;;;;;0.40;0.40;;;;;;;-145.06;0.00;60892.56;4725585;29;20040;-87
2021/12/12 06:01:30;;;;;;;;;;;;;;;-145.06;0.00;60892.56;4718480;29;20048;-87
2021/12/12 06:04:10;;;;;;;0.95;0.60;;;;;;;-145.06;0.00;60892.56;4731895;29;19978;-87
2021/12/12 06:06:49;;;;;;;0.50;0.50;;;;;;;-145.06;0.00;60892.56;4725747;29;20040;-88
2021/12/12 06:09:30;;;;;;;0.95;0.60;;;;;;;-145.06;0.00;60892.56;4728247;29;20387;-87
2021/12/12 06:12:09;;;;;;;;;;;;;;;-145.06;0.00;60892.56;4712874;29;20040;-87
2021/12/12 06:14:49;;;;;;;1.05;0.30;;;;;;;-145.06;0.00;60892.56;4711493;29;19923;-87
2021/12/12 06:17:30;;;;;;;0.50;0.50;;;;;;;-145.06;0.00;60892.56;4717459;29;20490;-87
2021/12/12 06:20:10;;;;;;;0.20;0.20;;;;;;;-145.06;0.00;60892.56;4727304;29;20041;-87
2021/12/12 06:22:52;;;;;;;0.40;0.40;;;;;;;-145.06;0.00;60892.56;4722643;29;20648;-87
2021/12/12 06:25:34;;;;;;;0.20;0.20;;;;;;;-145.06;0.00;60892.56;4713037;29;20024;-87
2021/12/12 06:28:17;;;;;;;0.25;0.25;;;;;;;-145.06;0.00;60892.56;4729954;29;20041;-88
2021/12/12 06:30:58;;;;;;;0.30;0.30;;;;;;;-145.06;0.00;60892.56;4714608;29;20047;-86
2021/12/12 06:33:39;;;;;;;0.55;0.40;;;;;;;-145.06;0.00;60892.56;4730771;29;20364;-88
2021/12/12 06:36:18;;;;;;;0.20;0.20;;;;;;;-145.06;0.00;60892.56;4728305;29;20479;-87
2021/12/12 06:38:57;;;;;;;0.68;0.30;;;;;;;8.08;0.00;60892.56;4724909;29;20187;-88
2021/12/12 06:41:37;;;;;;;0.30;0.30;;;;;;;-145.06;0.00;60892.56;4725894;29;20032;-87
2021/12/12 06:44:16;;;;;;;0.20;0.20;;;;;;;8.08;0.00;60892.56;4712629;29;20424;-88
2021/12/12 06:46:56;;;;;;;0.20;0.20;;;;;;;7.93;0.00;60892.56;4724119;29;20384;-87
2021/12/12 06:49:37;;;;;;;0.30;0.28;;;;;;;7.96;0.00;60892.56;4728834;29;20628;-88
2021/12/12 06:52:18;;;;;;;0.20;0.20;;;;;;;7.98;0.00;60892.56;4728835;29;20036;-88
2021/12/12 06:54:58;;;;;;;0.40;0.30;;;;;;;8.03;0.00;60892.56;4730857;29;20032;-88
2021/12/12 06:57:38;;;;;;;0.50;0.50;;;;;;;-145.06;0.00;60892.56;4716387;29;20063;-88
2021/12/12 07:00:19;;;;;;;;;;;;;;;8.06;0.00;60892.56;4730413;29;20375;-88
2021/12/12 07:02:58;;;;;;;0.60;0.60;;;;;;;-145.06;0.00;60892.56;4711114;29;19919;-87
2021/12/12 07:05:37;;;;;;;0.50;0.30;;;;;;;-145.06;0.00;60892.56;4712463;29;20052;-87
2021/12/12 07:08:19;;;;;;;0.70;0.50;;;;;;;-145.06;0.00;60892.56;4715953;29;20036;-87
2021/12/12 07:10:58;;;;;;;0.70;0.50;;;;;;;-145.06;0.00;60892.56;4710850;29;20040;-87
2021/12/12 07:13:37;;;;;;;1.00;0.80;;;;;;;-145.06;0.00;60892.56;4724958;29;20024;-88
2021/12/12 07:16:19;;;;;;;2.10;1.10;;;;;;;-145.06;0.00;60892.56;4723436;29;20119;-87
2021/12/12 07:18:59;;;;;;;2.28;1.40;;;;;;;187.52;0.00;60892.56;4733089;29;20029;-87
2021/12/12 07:21:41;;;;;;;2.42;1.48;;;;;;;-145.06;0.00;60892.56;4723903;29;20119;-87
2021/12/12 07:24:23;;;;;;;4.45;2.25;;;;;;;-145.06;0.00;60892.56;4726813;29;20783;-87
2021/12/12 07:27:02;;;;;;;8.45;3.67;;;;;;;-145.06;0.00;60892.56;4726824;29;20115;-87
2021/12/12 07:29:42;;;;;;;7.75;3.42;;;;;;;-145.06;0.00;60892.56;4715847;29;20028;-87
2021/12/12 07:32:21;;;;;;;9.02;3.97;;;;;;;-145.06;0.00;60892.56;4730896;29;20036;-86
2021/12/12 07:35:00;;;;;;;6.82;3.25;;;;;;;8.33;0.00;60892.56;4723649;29;20028;-87
2021/12/12 07:37:42;;;;;;;5.78;2.80;;;;;;;-145.06;0.00;60892.56;4728994;29;20068;-87
2021/12/12 07:40:22;;;;;;;4.05;2.00;;;;;;;8.33;0.00;60892.56;4731673;29;20033;-86
2021/12/12 07:43:03;;;;;;;2.10;1.33;;;;;;;-145.06;0.00;60892.56;4730863;29;20048;-88
2021/12/12 07:45:42;;;;;;;2.13;0.98;;;;;;;8.37;0.00;60892.56;4728487;29;20036;-88
2021/12/12 07:48:22;;;;;;;0.88;0.65;;;;;;;-145.06;0.00;60892.56;4720513;29;20044;-87
2021/12/12 07:51:03;;;;;;;1.25;0.40;;;;;;;-145.06;0.00;60892.56;4728953;29;20431;-88
2021/12/12 07:53:42;;;;;;;1.95;0.52;;;;;;;-145.06;0.00;60892.56;4731311;29;20029;-87
2021/12/12 07:56:24;;;;;;;0.65;0.50;;;;;;;-145.06;0.00;60892.56;4732337;29;20029;-87
2021/12/12 07:59:05;;;;;;;0.50;0.30;;;;;;;-145.06;0.00;60892.56;4717097;29;20052;-87
2021/12/12 08:01:47;;;;;;;0.55;0.30;;;;;;;-145.06;0.00;60892.56;4721248;29;20059;-87
2021/12/12 08:04:29;;;;;;;0.75;0.40;;;;;;;-145.06;0.00;60892.56;4716016;29;20036;-87
2021/12/12 08:07:15;;;;;;;0.38;0.32;;;;;;;-145.06;0.00;60892.56;4726883;29;20045;-88
2021/12/12 08:09:54;;;;;;;0.28;0.28;;;;;;;-145.06;0.00;60892.56;4729905;29;20032;-87
2021/12/12 08:12:34;;;;;;;0.30;0.30;;;;;;;-145.06;0.00;60892.56;4714926;29;20517;-87
2021/12/12 08:15:16;;;;;;;0.30;0.25;;;;;;;-145.06;0.00;60892.56;4734930;29;20036;-87
2021/12/12 08:18:00;;;;;;;0.20;0.20;;;;;;;-145.06;0.00;60892.56;4724805;29;20071;-87
2021/12/12 08:20:45;;;;;;;0.20;0.20;;;;;;;-145.06;0.00;60892.56;4712264;29;20112;-87
2021/12/12 08:23:25;;;;;;;0.30;0.30;;;;;;;-145.06;0.00;60892.56;4718725;29;20100;-88
2021/12/12 08:26:05;;;;;;;0.32;0.30;;;;;;;-145.06;0.00;60892.56;4727275;29;20036;-87
2021/12/12 08:28:45;;;;;;;0.20;0.20;;;;;;;-145.06;0.00;60892.56;4726255;29;20064;-87
2021/12/12 08:31:26;;;;;;;0.22;0.22;;;;;;;-145.06;0.00;60892.56;4723655;29;20043;-87
2021/12/12 08:34:10;;;;;;;0.30;0.30;;;;;;;-145.06;0.00;60892.56;4740040;29;20028;-87
2021/12/12 08:36:52;;;;;;;0.32;0.30;;;;;;;-145.06;0.00;60892.56;4722082;29;20044;-86
2021/12/12 08:39:32;;;;;;;0.40;0.40;;;;;;;-145.06;0.00;60892.56;4715710;29;20029;-87
2021/12/12 08:42:12;;;;;;;;;;;;;;;-145.06;0.00;60892.56;4762002;29;20047;-87
2021/12/12 08:44:51;;;;;;;0.75;0.40;;;;;;;9.06;0.00;60892.56;4737203;29;19959;-87
2021/12/12 08:47:33;;;;;;;0.50;0.40;;;;;;;-145.06;0.00;60892.56;4723604;29;20032;-86
2021/12/12 08:50:17;;;;;;;0.20;0.20;;;;;;;8.93;0.00;60892.56;4713931;29;20036;-87
2021/12/12 08:52:57;;;;;;;0.35;0.35;;;;;;;-145.06;0.00;60892.56;4715068;29;20040;-87
2021/12/12 08:55:38;;;;;;;;;;;;;;;-145.06;0.00;60892.56;4712551;29;20032;-87
2021/12/12 08:58:21;;;;;;;0.98;0.70;;;;;;;8.98;0.00;60892.56;4712005;29;20494;-87
2021/12/12 09:01:08;;;;;;;0.45;0.45;;;;;;;8.99;0.00;60892.56;4722501;29;20044;-87
2021/12/12 09:03:54;;;;;;;0.50;0.30;;;;;;;-145.06;0.00;60892.56;4717280;29;20108;-88
2021/12/12 09:06:43;;;;;;;0.50;0.30;;;;;;;9.05;0.00;60892.56;4726779;29;20036;-87
2021/12/12 09:09:36;;;;;;;0.30;0.30;;;;;;;-145.06;0.00;60892.56;4727387;29;20364;-86
2021/12/12 09:12:21;;;;;;;0.30;0.30;;;;;;;9.12;0.00;60892.56;4737740;29;20036;-87
2021/12/12 09:15:19;;;;;;;0.45;0.30;;;;;;;-145.06;0.00;60892.56;4725698;29;20037;-87
2021/12/12 09:18:08;;;;;;;0.30;0.30;;;;;;;-145.06;0.00;60892.56;4726919;29;20028;-88
2021/12/12 09:20:56;;;;;;;0.73;0.30;;;;;;;-145.06;0.00;60892.56;4717160;29;20119;-87
2021/12/12 09:23:50;;;;;;;0.30;0.30;;;;;;;-145.06;0.00;60892.56;4716649;29;20032;-88
2021/12/12 09:26:30;;;;;;;0.95;0.32;;;;;;;9.30;0.00;60892.56;4715204;29;20052;-87
2021/12/12 09:29:17;;;;;;;1.08;0.40;;;;;;;9.31;0.00;60892.56;4736094;29;20059;-86
2021/12/12 09:32:07;;;;;;;0.60;0.40;;;;;;;-145.06;0.00;60892.56;4733924;29;20044;-87
2021/12/12 09:34:56;;;;;;;0.20;0.20;;;;;;;9.34;0.00;60892.56;4712325;29;20028;-87
2021/12/12 09:38:00;;;;;;;0.67;0.40;;;;;;;-145.06;0.00;60892.56;4731579;29;20040;-88
2021/12/12 09:41:18;;;;;;;0.30;0.25;;;;;;;-145.06;0.00;60892.56;4733452;29;20119;-87
2021/12/12 09:44:25;;;;;;;1.60;0.57;;;;;;;-145.06;0.00;60892.56;4717244;29;20036;-87
2021/12/12 09:47:35;;;;;;;0.30;0.30;;;;;;;-145.06;0.00;60892.56;4732494;29;20044;-87
2021/12/12 09:53:46;;;;;;;1.30;0.43;;;;;;;9.57;0.00;80098.81;4739067;29;20032;-87
2021/12/12 09:56:58;;;;;;;0.20;0.20;;;;;;;-145.06;0.00;60892.56;4723002;29;20478;-86
2021/12/12 10:00:18;;;;;;;0.25;0.25;;;;;;;-145.06;0.00;60892.56;4696393;29;20037;-87
2021/12/12 10:03:18;;;;;;;0.28;0.20;;;;;;;-145.06;0.00;60892.56;4661061;29;20046;-86
2021/12/12 10:06:09;;;;;;;0.32;0.30;;;;;;;-145.06;0.00;60892.56;4726417;29;20486;-87
2021/12/12 10:08:58;;;;;;;0.40;0.30;;;;;;;-145.06;0.00;60892.56;4731424;29;20537;-87
2021/12/12 10:11:44;;;;;;;0.47;0.47;;;;;;;-145.06;0.00;60892.56;4723550;29;20025;-87
2021/12/12 10:14:32;;;;;;;0.52;0.30;;;;;;;-145.06;0.00;60892.56;4706423;29;20044;-87
2021/12/12 10:17:10;;;;;;;0.20;0.20;;;;;;;-145.06;0.00;60892.56;4718463;29;20036;-86
2021/12/12 10:19:59;;;;;;;0.60;0.40;;;;;;;-145.06;0.00;60892.56;4710473;29;20032;-87
2021/12/12 10:23:00;;;;;;;0.70;0.40;;;;;;;-145.06;0.00;60892.56;4726125;29;20028;-87
2021/12/12 10:25:42;;;;;;;0.95;0.50;;;;;;;-145.06;0.00;60892.56;4727901;29;20048;-86
2021/12/12 10:28:23;;;;;;;0.93;0.38;;;;;;;-145.06;0.00;60892.56;4746306;29;20036;-87
2021/12/12 10:31:11;;;;;;;1.55;0.47;;;;;;;-145.06;0.00;60892.56;4741158;29;20044;-87
2021/12/12 10:34:09;;;;;;;1.70;0.50;;;;;;;-145.06;0.00;60892.56;4736671;29;20387;-87
2021/12/12 10:37:14;;;;;;;1.30;0.63;;;;;;;-145.06;0.00;60892.56;4717306;29;20104;-87
2021/12/12 10:40:21;;;;;;;1.50;0.60;;;;;;;-145.06;0.00;60892.56;4729521;29;20040;-87
2021/12/12 10:43:06;;;;;;;1.25;0.40;;;;;;;-145.06;0.00;60892.56;4732604;29;20040;-87
2021/12/12 10:45:52;;;;;;;0.47;0.40;;;;;;;-145.06;0.00;60892.56;4720295;29;20048;-87
2021/12/12 10:48:43;;;;;;;0.50;0.43;;;;;;;-145.06;0.00;60892.56;4713075;29;20064;-87
2021/12/12 10:51:27;;;;;;;1.08;0.70;;;;;;;-145.06;0.00;60892.56;4716359;29;20372;-87
2021/12/12 10:54:13;;;;;;;1.27;0.55;;;;;;;-145.06;0.00;60892.56;4712294;29;20040;-87
2021/12/12 10:57:03;;;;;;;1.38;0.73;;;;;;;-145.06;0.00;60892.56;4718901;29;20040;-87
2021/12/12 10:59:52;;;;;;;0.90;0.52;;;;;;;-145.06;0.00;60892.56;4729853;29;20111;-87
2021/12/12 11:02:41;;;;;;;0.70;0.60;;;;;;;-145.06;0.00;60892.56;4726277;29;20033;-87
2021/12/12 11:05:26;;;;;;;1.40;0.60;;;;;;;-145.06;0.00;60892.56;4722302;29;20116;-88
2021/12/12 11:08:36;;;;;;;0.40;0.32;;;;;;;-145.06;0.00;60892.56;4726374;29;20538;-88
2021/12/12 11:11:20;;;;;;;0.90;0.38;;;;;;;-145.06;0.00;60892.56;4733018;29;20119;-87
2021/12/12 11:14:12;;;;;;;0.70;0.60;;;;;;;-145.06;0.00;60892.56;4719356;29;20506;-88
2021/12/12 11:17:11;;;;;;;0.65;0.57;;;;;;;-145.06;0.00;60892.56;4729116;29;20041;-87
2021/12/12 11:19:58;;;;;;;1.17;0.60;;;;;;;-145.06;0.00;60892.56;4718085;29;20037;-87
2021/12/12 11:22:44;;;;;;;0.60;0.50;;;;;;;-145.06;0.00;60892.56;4724961;29;20064;-88
2021/12/12 11:25:38;;;;;;;1.05;0.60;;;;;;;-145.06;0.00;60892.56;4714705;29;20119;-87
2021/12/12 11:28:30;;;;;;;0.73;0.60;;;;;;;-145.06;0.00;60892.56;4748793;29;20028;-87
2021/12/12 11:31:19;;;;;;;0.55;0.50;;;;;;;-145.06;0.00;60892.56;4728103;29;20036;-87
2021/12/12 11:33:59;;;;;;;0.47;0.47;;;;;;;11.33;0.00;60892.56;4725043;29;20680;-88
2021/12/12 11:36:49;;;;;;;;;;;;;;;-145.06;0.00;60892.56;4732907;29;20039;-87
2021/12/12 11:40:14;;;;;;;1.27;0.60;;;;;;;-145.06;0.00;60892.56;4721317;29;20002;-88
2021/12/12 11:42:57;;;;;;;0.30;0.30;;;;;;;-145.06;0.00;60892.56;4731300;29;20111;-88
2021/12/12 11:45:44;;;;;;;1.10;0.47;;;;;;;-145.06;0.00;60892.56;4728816;29;20032;-88
2021/12/12 11:48:51;;;;;;;0.60;0.50;;;;;;;-145.06;0.00;60892.56;4738392;29;20036;-87
2021/12/12 11:51:38;;;;;;;0.73;0.50;;;;;;;-145.06;0.00;60892.56;4712439;29;20032;-88
2021/12/12 11:54:42;;;;;;;0.30;0.30;;;;;;;-145.06;0.00;60892.56;4729291;29;20028;-88
2021/12/12 11:57:28;;;;;;;0.93;0.40;;;;;;;-145.06;0.00;60892.56;4724702;29;20111;-88
2021/12/12 12:00:14;;;;;;;0.75;0.57;;;;;;;-145.06;0.00;60892.56;4724093;29;20037;-88
2021/12/12 12:03:02;;;;;;;1.23;0.60;;;;;;;-145.06;0.00;60892.56;4727359;29;20064;-88
2021/12/12 12:05:56;;;;;;;0.30;0.30;;;;;;;10.90;0.00;60892.56;4734344;29;20021;-88
2021/12/12 12:08:45;;;;;;;0.47;0.40;;;;;;;-145.06;0.00;60892.56;4740535;29;20028;-88
2021/12/12 12:11:58;;;;;;;0.52;0.40;;;;;;;-145.06;0.00;60892.56;4718691;29;20040;-87
2021/12/12 12:15:09;;;;;;;0.32;0.30;;;;;;;-145.06;0.00;60892.56;4734853;29;20367;-88
2021/12/12 12:18:04;;;;;;;0.73;0.40;;;;;;;-145.06;0.00;60892.56;4712830;29;20048;-88
2021/12/12 12:21:12;;;;;;;0.47;0.40;;;;;;;-145.06;0.00;60892.56;4735080;29;20379;-89
2021/12/12 12:27:06;;;;;;;0.85;0.35;;;;;;;-145.06;0.00;60892.56;4714678;29;20028;-87
2021/12/12 12:30:26;;;;;;;0.30;0.30;;;;;;;-145.06;0.00;60892.56;4724080;29;20029;-88
2021/12/12 12:33:08;;;;;;;0.40;0.40;;;;;;;-145.06;0.00;60892.56;4712477;29;20368;-87
2021/12/12 12:36:25;;;;;;;0.50;0.30;;;;;;;-145.06;0.00;60892.56;4719281;29;20028;-87
2021/12/12 12:39:38;;;;;;;0.32;0.32;;;;;;;-145.06;0.00;60892.56;4728798;29;20071;-88
2021/12/12 12:42:41;;;;;;;0.40;0.40;;;;;;;-145.06;0.00;60892.56;4725589;29;20037;-89
2021/12/12 12:45:59;;;;;;;0.40;0.40;;;;;;;-145.06;0.00;60892.56;4740484;29;20360;-88
2021/12/12 12:48:45;;;;;;;0.38;0.38;;;;;;;-145.06;0.00;60892.56;4744301;29;20036;-88
2021/12/12 12:52:02;;;;;;;0.50;0.50;;;;;;;-145.06;0.00;60892.56;4724472;29;20032;-88
2021/12/12 12:55:26;;;;;;;0.30;0.30;;;;;;;187.52;0.00;60892.56;4722864;29;20029;-88
2021/12/12 12:58:21;;;;;;;0.32;0.32;;;;;;;-145.06;0.00;60892.56;4719391;29;20379;-88
2021/12/12 13:01:25;;;;;;;0.40;0.40;;;;;;;-145.06;0.00;60892.56;4730789;29;20032;-88
2021/12/12 13:04:06;;;;;;;0.40;0.40;;;;;;;-145.06;0.00;60892.56;4724855;29;20041;-88
2021/12/12 13:07:14;;;;;;;0.40;0.40;;;;;;;-145.06;0.00;60892.56;4721957;29;20075;-89
2021/12/12 13:10:01;;;;;;;0.50;0.40;;;;;;;10.99;0.00;60892.56;4733163;29;20024;-88
2021/12/12 13:13:05;;;;;;;0.50;0.40;;;;;;;-145.06;0.00;60892.56;4714162;29;20045;-89
2021/12/12 13:15:49;;;;;;;0.57;0.50;;;;;;;-145.06;0.00;60892.56;4719738;29;20237;-88
2021/12/12 13:18:53;;;;;;;0.63;0.32;;;;;;;-145.06;0.00;60892.56;4732808;29;20816;-88
2021/12/12 13:21:38;;;;;;;0.55;0.38;;;;;;;-145.06;0.00;60892.56;4724281;29;20021;-88
2021/12/12 13:24:36;;;;;;;0.93;0.50;;;;;;;-145.06;0.00;60892.56;4740899;29;20483;-88
2021/12/12 13:28:05;;;;;;;0.50;0.40;;;;;;;-145.06;0.00;60892.56;4727786;29;20067;-88
2021/12/12 13:31:01;;;;;;;0.32;0.30;;;;;;;-145.06;0.00;60892.56;4711957;29;20020;-88
2021/12/12 13:33:47;;;;;;;0.25;0.25;;;;;;;-145.06;0.00;60892.56;4719489;29;20028;-88